sensor_id;sensor_type;location;lat;lon;timestamp;pressure;altitude;pressure_sealevel;temperature;humidity
46448;BME280;32145;50.390;30.778;2023-06-04T00:01:48;100781.28;;;7.56;60.10
46448;BME280;32145;50.390;30.778;2023-06-04T00:04:43;100785.38;;;7.52;60.00
46448;BME280;32145;50.390;30.778;2023-06-04T00:07:37;100787.63;;;7.48;60.23
46448;BME280;32145;50.390;30.778;2023-06-04T00:10:33;100784.28;;;7.46;60.43
46448;BME280;32145;50.390;30.778;2023-06-04T00:13:31;100778.22;;;7.44;60.36
46448;BME280;32145;50.390;30.778;2023-06-04T00:16:27;100779.44;;;7.42;60.44
46448;BME280;32145;50.390;30.778;2023-06-04T00:19:23;100772.78;;;7.38;60.78
46448;BME280;32145;50.390;30.778;2023-06-04T00:22:20;100779.75;;;7.32;60.62
46448;BME280;32145;50.390;30.778;2023-06-04T00:25:14;100780.91;;;7.22;60.05
46448;BME280;32145;50.390;30.778;2023-06-04T00:28:09;100777.09;;;7.17;60.49
46448;BME280;32145;50.390;30.778;2023-06-04T00:31:06;100788.25;;;7.14;61.00
46448;BME280;32145;50.390;30.778;2023-06-04T00:34:03;100783.22;;;7.11;60.95
46448;BME280;32145;50.390;30.778;2023-06-04T00:36:59;100786.50;;;7.06;61.10
46448;BME280;32145;50.390;30.778;2023-06-04T00:39:55;100783.53;;;7.01;61.05
46448;BME280;32145;50.390;30.778;2023-06-04T00:42:52;100785.94;;;6.95;61.17
46448;BME280;32145;50.390;30.778;2023-06-04T00:45:48;100783.25;;;6.95;61.09
46448;BME280;32145;50.390;30.778;2023-06-04T00:48:46;100787.16;;;6.93;60.81
46448;BME280;32145;50.390;30.778;2023-06-04T00:51:42;100782.50;;;6.87;61.39
46448;BME280;32145;50.390;30.778;2023-06-04T00:54:39;100789.78;;;6.86;61.10
46448;BME280;32145;50.390;30.778;2023-06-04T00:57:36;100787.44;;;6.83;61.40
46448;BME280;32145;50.390;30.778;2023-06-04T01:00:33;100791.06;;;6.75;61.86
46448;BME280;32145;50.390;30.778;2023-06-04T01:03:31;100790.16;;;6.68;62.07
46448;BME280;32145;50.390;30.778;2023-06-04T01:06:37;100788.28;;;6.68;61.53
46448;BME280;32145;50.390;30.778;2023-06-04T01:09:34;100793.84;;;6.67;62.04
46448;BME280;32145;50.390;30.778;2023-06-04T01:12:31;100801.66;;;6.62;62.22
46448;BME280;32145;50.390;30.778;2023-06-04T01:15:25;100797.47;;;6.59;61.90
46448;BME280;32145;50.390;30.778;2023-06-04T01:18:23;100802.38;;;6.55;62.16
46448;BME280;32145;50.390;30.778;2023-06-04T01:21:19;100806.84;;;6.48;61.93
46448;BME280;32145;50.390;30.778;2023-06-04T01:24:15;100803.50;;;6.46;62.35
46448;BME280;32145;50.390;30.778;2023-06-04T01:27:11;100803.84;;;6.43;62.20
46448;BME280;32145;50.390;30.778;2023-06-04T01:30:07;100804.34;;;6.47;62.38
46448;BME280;32145;50.390;30.778;2023-06-04T01:33:02;100795.59;;;6.44;62.20
46448;BME280;32145;50.390;30.778;2023-06-04T01:35:58;100795.94;;;6.41;62.39
46448;BME280;32145;50.390;30.778;2023-06-04T01:38:52;100806.25;;;6.38;62.73
46448;BME280;32145;50.390;30.778;2023-06-04T01:41:48;100808.28;;;6.36;63.02
46448;BME280;32145;50.390;30.778;2023-06-04T01:44:42;100808.69;;;6.32;62.65
46448;BME280;32145;50.390;30.778;2023-06-04T01:47:37;100821.47;;;6.30;62.63
46448;BME280;32145;50.390;30.778;2023-06-04T01:50:31;100816.09;;;6.30;63.17
46448;BME280;32145;50.390;30.778;2023-06-04T01:53:26;100812.38;;;6.31;63.18
46448;BME280;32145;50.390;30.778;2023-06-04T01:56:20;100813.22;;;6.32;62.92
46448;BME280;32145;50.390;30.778;2023-06-04T01:59:17;100821.75;;;6.36;62.71
46448;BME280;32145;50.390;30.778;2023-06-04T02:02:14;100813.88;;;6.34;63.24
46448;BME280;32145;50.390;30.778;2023-06-04T02:05:10;100819.06;;;6.36;63.21
46448;BME280;32145;50.390;30.778;2023-06-04T02:08:07;100823.44;;;6.37;62.80
46448;BME280;32145;50.390;30.778;2023-06-04T02:11:03;100833.19;;;6.38;62.76
46448;BME280;32145;50.390;30.778;2023-06-04T02:13:59;100826.59;;;6.40;62.76
46448;BME280;32145;50.390;30.778;2023-06-04T02:16:57;100832.84;;;6.41;62.98
46448;BME280;32145;50.390;30.778;2023-06-04T02:19:53;100829.13;;;6.42;63.24
46448;BME280;32145;50.390;30.778;2023-06-04T02:22:50;100829.59;;;6.45;63.35
46448;BME280;32145;50.390;30.778;2023-06-04T02:25:46;100829.88;;;6.51;63.33
46448;BME280;32145;50.390;30.778;2023-06-04T02:28:43;100826.00;;;6.53;62.98
46448;BME280;32145;50.390;30.778;2023-06-04T02:31:39;100823.94;;;6.55;62.92
46448;BME280;32145;50.390;30.778;2023-06-04T02:34:37;100823.22;;;6.62;63.11
46448;BME280;32145;50.390;30.778;2023-06-04T02:37:33;100819.78;;;6.68;62.69
46448;BME280;32145;50.390;30.778;2023-06-04T02:40:29;100824.16;;;6.69;62.40
46448;BME280;32145;50.390;30.778;2023-06-04T02:43:26;100830.00;;;6.73;62.16
46448;BME280;32145;50.390;30.778;2023-06-04T02:46:22;100837.19;;;6.80;63.01
46448;BME280;32145;50.390;30.778;2023-06-04T02:49:18;100836.91;;;6.90;62.80
46448;BME280;32145;50.390;30.778;2023-06-04T02:52:16;100841.00;;;7.01;62.73
46448;BME280;32145;50.390;30.778;2023-06-04T02:55:12;100839.84;;;7.11;62.02
46448;BME280;32145;50.390;30.778;2023-06-04T02:58:07;100842.63;;;7.17;62.44
46448;BME280;32145;50.390;30.778;2023-06-04T03:01:01;100847.28;;;7.24;62.08
46448;BME280;32145;50.390;30.778;2023-06-04T03:03:56;100849.03;;;7.31;62.42
46448;BME280;32145;50.390;30.778;2023-06-04T03:06:50;100851.25;;;7.43;62.64
46448;BME280;32145;50.390;30.778;2023-06-04T03:09:45;100856.19;;;7.54;62.88
46448;BME280;32145;50.390;30.778;2023-06-04T03:12:40;100866.84;;;7.63;62.55
46448;BME280;32145;50.390;30.778;2023-06-04T03:15:36;100858.66;;;7.71;62.16
46448;BME280;32145;50.390;30.778;2023-06-04T03:18:32;100861.75;;;7.90;62.17
46448;BME280;32145;50.390;30.778;2023-06-04T03:21:27;100874.25;;;8.34;62.69
46448;BME280;32145;50.390;30.778;2023-06-04T03:24:21;100884.66;;;9.59;60.97
46448;BME280;32145;50.390;30.778;2023-06-04T03:27:17;100878.16;;;11.03;56.94
46448;BME280;32145;50.390;30.778;2023-06-04T03:30:11;100881.09;;;12.07;54.19
46448;BME280;32145;50.390;30.778;2023-06-04T03:33:06;100880.47;;;12.88;51.91
46448;BME280;32145;50.390;30.778;2023-06-04T03:36:01;100885.66;;;13.52;50.35
46448;BME280;32145;50.390;30.778;2023-06-04T03:38:55;100881.75;;;14.10;49.09
46448;BME280;32145;50.390;30.778;2023-06-04T03:41:49;100880.06;;;14.63;47.60
46448;BME280;32145;50.390;30.778;2023-06-04T03:44:45;100877.81;;;15.08;46.57
46448;BME280;32145;50.390;30.778;2023-06-04T03:47:40;100877.16;;;15.42;45.74
46448;BME280;32145;50.390;30.778;2023-06-04T03:50:35;100876.63;;;15.69;45.35
46448;BME280;32145;50.390;30.778;2023-06-04T03:53:29;100875.09;;;15.90;44.86
46448;BME280;32145;50.390;30.778;2023-06-04T03:56:23;100874.50;;;16.00;44.67
46448;BME280;32145;50.390;30.778;2023-06-04T03:59:18;100865.59;;;15.93;44.56
46448;BME280;32145;50.390;30.778;2023-06-04T04:02:14;100866.38;;;15.76;44.87
46448;BME280;32145;50.390;30.778;2023-06-04T04:05:08;100880.03;;;15.47;45.08
46448;BME280;32145;50.390;30.778;2023-06-04T04:08:03;100873.47;;;14.95;45.25
46448;BME280;32145;50.390;30.778;2023-06-04T04:10:57;100881.34;;;14.49;46.21
46448;BME280;32145;50.390;30.778;2023-06-04T04:13:52;100887.19;;;14.10;45.58
46448;BME280;32145;50.390;30.778;2023-06-04T04:16:48;100891.97;;;13.84;45.55
46448;BME280;32145;50.390;30.778;2023-06-04T04:19:46;100891.69;;;13.73;45.22
46448;BME280;32145;50.390;30.778;2023-06-04T04:22:42;100880.50;;;13.63;45.07
46448;BME280;32145;50.390;30.778;2023-06-04T04:25:39;100883.59;;;13.66;44.80
46448;BME280;32145;50.390;30.778;2023-06-04T04:28:35;100885.38;;;13.73;44.57
46448;BME280;32145;50.390;30.778;2023-06-04T04:31:31;100890.28;;;13.83;44.35
46448;BME280;32145;50.390;30.778;2023-06-04T04:34:28;100885.34;;;13.91;44.32
46448;BME280;32145;50.390;30.778;2023-06-04T04:37:25;100890.94;;;13.97;43.55
46448;BME280;32145;50.390;30.778;2023-06-04T04:40:21;100893.22;;;14.00;43.29
46448;BME280;32145;50.390;30.778;2023-06-04T04:43:28;100900.25;;;14.08;42.60
46448;BME280;32145;50.390;30.778;2023-06-04T04:46:26;100890.66;;;14.17;42.58
46448;BME280;32145;50.390;30.778;2023-06-04T04:49:22;100887.72;;;14.30;42.36
46448;BME280;32145;50.390;30.778;2023-06-04T04:52:18;100888.47;;;14.50;42.02
46448;BME280;32145;50.390;30.778;2023-06-04T04:55:15;100885.53;;;14.51;41.00
46448;BME280;32145;50.390;30.778;2023-06-04T04:58:10;100885.53;;;14.51;41.21
46448;BME280;32145;50.390;30.778;2023-06-04T05:01:04;100889.22;;;14.69;41.07
46448;BME280;32145;50.390;30.778;2023-06-04T05:03:58;100890.31;;;14.80;40.25
46448;BME280;32145;50.390;30.778;2023-06-04T05:06:52;100891.41;;;14.91;40.29
46448;BME280;32145;50.390;30.778;2023-06-04T05:09:47;100897.31;;;15.00;39.22
46448;BME280;32145;50.390;30.778;2023-06-04T05:12:51;100902.19;;;14.98;38.43
46448;BME280;32145;50.390;30.778;2023-06-04T05:15:45;100895.19;;;15.02;38.84
46448;BME280;32145;50.390;30.778;2023-06-04T05:18:41;100892.44;;;15.14;38.66
46448;BME280;32145;50.390;30.778;2023-06-04T05:21:36;100897.41;;;15.29;38.93
46448;BME280;32145;50.390;30.778;2023-06-04T05:24:30;100895.13;;;15.38;38.85
46448;BME280;32145;50.390;30.778;2023-06-04T05:27:25;100897.28;;;15.36;37.67
46448;BME280;32145;50.390;30.778;2023-06-04T05:30:21;100886.81;;;15.32;37.92
46448;BME280;32145;50.390;30.778;2023-06-04T05:33:15;100894.25;;;15.49;38.18
46448;BME280;32145;50.390;30.778;2023-06-04T05:36:10;100891.75;;;15.59;38.12
46448;BME280;32145;50.390;30.778;2023-06-04T05:39:04;100892.94;;;15.64;37.97
46448;BME280;32145;50.390;30.778;2023-06-04T05:41:59;100904.16;;;15.79;37.68
46448;BME280;32145;50.390;30.778;2023-06-04T05:44:53;100902.84;;;15.82;38.04
46448;BME280;32145;50.390;30.778;2023-06-04T05:47:53;100902.31;;;15.68;36.30
46448;BME280;32145;50.390;30.778;2023-06-04T05:50:49;100894.97;;;15.56;36.98
46448;BME280;32145;50.390;30.778;2023-06-04T05:53:46;100902.59;;;15.54;37.08
46448;BME280;32145;50.390;30.778;2023-06-04T05:56:42;100897.28;;;15.77;37.27
46448;BME280;32145;50.390;30.778;2023-06-04T05:59:38;100897.72;;;15.85;36.61
46448;BME280;32145;50.390;30.778;2023-06-04T06:02:34;100898.56;;;15.86;36.58
46448;BME280;32145;50.390;30.778;2023-06-04T06:05:30;100897.09;;;15.95;35.79
46448;BME280;32145;50.390;30.778;2023-06-04T06:08:24;100893.47;;;15.78;35.11
46448;BME280;32145;50.390;30.778;2023-06-04T06:11:19;100900.59;;;15.79;35.46
46448;BME280;32145;50.390;30.778;2023-06-04T06:14:13;100907.06;;;16.02;35.58
46448;BME280;32145;50.390;30.778;2023-06-04T06:17:07;100904.94;;;16.21;35.31
46448;BME280;32145;50.390;30.778;2023-06-04T06:20:02;100900.75;;;16.30;34.85
46448;BME280;32145;50.390;30.778;2023-06-04T06:23:06;100899.16;;;16.52;34.69
46448;BME280;32145;50.390;30.778;2023-06-04T06:26:00;100900.75;;;16.65;34.24
46448;BME280;32145;50.390;30.778;2023-06-04T06:28:54;100903.31;;;16.71;34.65
46448;BME280;32145;50.390;30.778;2023-06-04T06:31:49;100900.09;;;16.74;34.25
46448;BME280;32145;50.390;30.778;2023-06-04T06:34:43;100900.91;;;16.75;34.21
46448;BME280;32145;50.390;30.778;2023-06-04T06:37:38;100907.50;;;16.74;33.73
46448;BME280;32145;50.390;30.778;2023-06-04T06:40:33;100909.81;;;16.82;33.66
46448;BME280;32145;50.390;30.778;2023-06-04T06:43:27;100902.06;;;16.96;33.96
46448;BME280;32145;50.390;30.778;2023-06-04T06:46:22;100909.44;;;16.96;32.76
46448;BME280;32145;50.390;30.778;2023-06-04T06:49:16;100911.28;;;17.07;32.57
46448;BME280;32145;50.390;30.778;2023-06-04T06:52:11;100913.28;;;17.12;32.02
46448;BME280;32145;50.390;30.778;2023-06-04T06:55:05;100911.94;;;17.15;32.15
46448;BME280;32145;50.390;30.778;2023-06-04T06:58:01;100904.88;;;17.19;31.68
46448;BME280;32145;50.390;30.778;2023-06-04T07:00:55;100906.72;;;17.13;31.53
46448;BME280;32145;50.390;30.778;2023-06-04T07:03:50;100904.72;;;17.08;31.17
46448;BME280;32145;50.390;30.778;2023-06-04T07:06:44;100905.81;;;17.07;31.35
46448;BME280;32145;50.390;30.778;2023-06-04T07:09:38;100905.69;;;17.19;31.26
46448;BME280;32145;50.390;30.778;2023-06-04T07:12:33;100901.47;;;17.11;31.08
46448;BME280;32145;50.390;30.778;2023-06-04T07:15:30;100908.69;;;17.18;30.99
46448;BME280;32145;50.390;30.778;2023-06-04T07:18:26;100913.03;;;17.13;30.62
46448;BME280;32145;50.390;30.778;2023-06-04T07:21:23;100915.25;;;17.17;30.81
46448;BME280;32145;50.390;30.778;2023-06-04T07:24:19;100914.31;;;17.28;30.78
46448;BME280;32145;50.390;30.778;2023-06-04T07:27:16;100914.91;;;17.30;30.84
46448;BME280;32145;50.390;30.778;2023-06-04T07:30:10;100918.84;;;17.39;30.58
46448;BME280;32145;50.390;30.778;2023-06-04T07:33:06;100924.97;;;17.47;30.56
46448;BME280;32145;50.390;30.778;2023-06-04T07:36:00;100921.78;;;17.55;30.36
46448;BME280;32145;50.390;30.778;2023-06-04T07:38:54;100924.06;;;17.63;29.94
46448;BME280;32145;50.390;30.778;2023-06-04T07:41:49;100911.81;;;17.49;28.92
46448;BME280;32145;50.390;30.778;2023-06-04T07:44:43;100913.28;;;17.12;29.14
46448;BME280;32145;50.390;30.778;2023-06-04T07:47:37;100917.28;;;17.26;30.07
46448;BME280;32145;50.390;30.778;2023-06-04T07:50:33;100906.78;;;17.41;29.34
46448;BME280;32145;50.390;30.778;2023-06-04T07:53:28;100908.41;;;17.19;28.81
46448;BME280;32145;50.390;30.778;2023-06-04T07:56:22;100903.47;;;16.99;28.98
46448;BME280;32145;50.390;30.778;2023-06-04T07:59:16;100909.19;;;17.15;29.58
46448;BME280;32145;50.390;30.778;2023-06-04T08:02:11;100905.72;;;17.42;29.64
46448;BME280;32145;50.390;30.778;2023-06-04T08:05:06;100916.22;;;17.72;29.83
46448;BME280;32145;50.390;30.778;2023-06-04T08:08:01;100917.56;;;17.92;29.17
46448;BME280;32145;50.390;30.778;2023-06-04T08:10:55;100918.03;;;18.11;29.32
46448;BME280;32145;50.390;30.778;2023-06-04T08:13:50;100912.41;;;18.23;29.16
46448;BME280;32145;50.390;30.778;2023-06-04T08:16:44;100918.16;;;18.22;28.91
46448;BME280;32145;50.390;30.778;2023-06-04T08:19:40;100916.38;;;18.38;28.90
46448;BME280;32145;50.390;30.778;2023-06-04T08:22:37;100913.69;;;18.43;28.61
46448;BME280;32145;50.390;30.778;2023-06-04T08:25:34;100915.44;;;18.54;28.50
46448;BME280;32145;50.390;30.778;2023-06-04T08:28:31;100909.19;;;18.64;28.39
46448;BME280;32145;50.390;30.778;2023-06-04T08:31:27;100909.78;;;18.72;28.26
46448;BME280;32145;50.390;30.778;2023-06-04T08:34:21;100900.63;;;18.61;27.94
46448;BME280;32145;50.390;30.778;2023-06-04T08:37:16;100905.34;;;18.65;28.09
46448;BME280;32145;50.390;30.778;2023-06-04T08:40:11;100898.97;;;18.54;27.38
46448;BME280;32145;50.390;30.778;2023-06-04T08:43:07;100899.16;;;18.48;27.55
46448;BME280;32145;50.390;30.778;2023-06-04T08:46:05;100904.25;;;18.66;27.66
46448;BME280;32145;50.390;30.778;2023-06-04T08:48:49;100902.03;;;18.63;27.54
46448;BME280;32145;50.390;30.778;2023-06-04T08:51:47;100903.25;;;18.78;27.88
46448;BME280;32145;50.390;30.778;2023-06-04T08:54:41;100896.78;;;19.00;27.53
46448;BME280;32145;50.390;30.778;2023-06-04T08:57:36;100888.69;;;19.21;27.79
46448;BME280;32145;50.390;30.778;2023-06-04T09:00:31;100890.41;;;19.32;27.44
46448;BME280;32145;50.390;30.778;2023-06-04T09:03:25;100884.59;;;19.34;27.57
46448;BME280;32145;50.390;30.778;2023-06-04T09:06:10;100886.03;;;19.41;27.90
46448;BME280;32145;50.390;30.778;2023-06-04T09:08:56;100884.41;;;19.45;26.94
46448;BME280;32145;50.390;30.778;2023-06-04T09:11:55;100892.34;;;19.42;26.86
46448;BME280;32145;50.390;30.778;2023-06-04T09:14:49;100881.66;;;19.51;27.08
46448;BME280;32145;50.390;30.778;2023-06-04T09:17:35;100885.72;;;19.38;26.54
46448;BME280;32145;50.390;30.778;2023-06-04T09:20:19;100878.31;;;19.38;26.81
46448;BME280;32145;50.390;30.778;2023-06-04T09:23:13;100877.13;;;19.18;26.01
46448;BME280;32145;50.390;30.778;2023-06-04T09:26:07;100873.16;;;19.04;26.39
46448;BME280;32145;50.390;30.778;2023-06-04T09:28:52;100873.13;;;18.93;26.71
46448;BME280;32145;50.390;30.778;2023-06-04T09:31:36;100878.53;;;18.83;26.51
46448;BME280;32145;50.390;30.778;2023-06-04T09:34:28;100872.25;;;18.88;26.77
46448;BME280;32145;50.390;30.778;2023-06-04T09:37:14;100871.22;;;18.99;26.74
46448;BME280;32145;50.390;30.778;2023-06-04T09:39:58;100874.38;;;19.18;26.69
46448;BME280;32145;50.390;30.778;2023-06-04T09:42:52;100870.59;;;19.30;26.35
46448;BME280;32145;50.390;30.778;2023-06-04T09:45:36;100854.66;;;19.32;26.50
46448;BME280;32145;50.390;30.778;2023-06-04T09:48:30;100856.00;;;19.24;26.04
46448;BME280;32145;50.390;30.778;2023-06-04T09:51:15;100853.56;;;19.38;26.39
46448;BME280;32145;50.390;30.778;2023-06-04T09:54:01;100847.28;;;19.53;26.16
46448;BME280;32145;50.390;30.778;2023-06-04T09:56:56;100843.16;;;19.51;26.02
46448;BME280;32145;50.390;30.778;2023-06-04T09:59:53;100840.19;;;19.63;26.07
46448;BME280;32145;50.390;30.778;2023-06-04T10:02:37;100842.13;;;19.78;25.94
46448;BME280;32145;50.390;30.778;2023-06-04T10:05:32;100842.69;;;19.85;25.84
46448;BME280;32145;50.390;30.778;2023-06-04T10:08:18;100834.44;;;19.95;25.98
46448;BME280;32145;50.390;30.778;2023-06-04T10:11:17;100836.72;;;20.04;26.13
46448;BME280;32145;50.390;30.778;2023-06-04T10:14:18;100832.03;;;20.15;26.22
46448;BME280;32145;50.390;30.778;2023-06-04T10:17:04;100831.19;;;20.25;26.48
46448;BME280;32145;50.390;30.778;2023-06-04T10:19:59;100827.34;;;20.36;26.24
46448;BME280;32145;50.390;30.778;2023-06-04T10:22:45;100824.84;;;20.29;26.92
46448;BME280;32145;50.390;30.778;2023-06-04T10:25:37;100824.84;;;20.08;25.21
46448;BME280;32145;50.390;30.778;2023-06-04T10:28:32;100826.25;;;20.06;25.57
46448;BME280;32145;50.390;30.778;2023-06-04T10:31:30;100826.78;;;20.13;25.46
46448;BME280;32145;50.390;30.778;2023-06-04T10:34:26;100821.84;;;20.26;25.65
46448;BME280;32145;50.390;30.778;2023-06-04T10:37:19;100823.22;;;20.39;25.58
46448;BME280;32145;50.390;30.778;2023-06-04T10:40:13;100804.16;;;20.58;25.87
46448;BME280;32145;50.390;30.778;2023-06-04T10:43:09;100811.31;;;20.69;25.11
46448;BME280;32145;50.390;30.778;2023-06-04T10:45:54;100798.09;;;20.71;24.73
46448;BME280;32145;50.390;30.778;2023-06-04T10:48:52;100804.41;;;20.72;24.76
46448;BME280;32145;50.390;30.778;2023-06-04T10:51:36;100803.56;;;20.82;24.75
46448;BME280;32145;50.390;30.778;2023-06-04T10:54:30;100803.25;;;20.99;25.17
46448;BME280;32145;50.390;30.778;2023-06-04T10:57:25;100795.75;;;21.10;25.13
46448;BME280;32145;50.390;30.778;2023-06-04T11:00:11;100806.25;;;21.08;25.00
46448;BME280;32145;50.390;30.778;2023-06-04T11:02:55;100797.72;;;21.09;24.18
46448;BME280;32145;50.390;30.778;2023-06-04T11:05:41;100797.66;;;21.20;24.90
46448;BME280;32145;50.390;30.778;2023-06-04T11:08:27;100792.34;;;21.39;24.74
46448;BME280;32145;50.390;30.778;2023-06-04T11:11:21;100782.34;;;21.48;24.77
46448;BME280;32145;50.390;30.778;2023-06-04T11:14:08;100787.34;;;21.41;25.02
46448;BME280;32145;50.390;30.778;2023-06-04T11:16:54;100787.34;;;21.41;24.66
46448;BME280;32145;50.390;30.778;2023-06-04T11:19:48;100783.19;;;21.49;24.35
46448;BME280;32145;50.390;30.778;2023-06-04T11:22:32;100778.47;;;21.49;24.11
46448;BME280;32145;50.390;30.778;2023-06-04T11:25:26;100778.44;;;21.55;24.72
46448;BME280;32145;50.390;30.778;2023-06-04T11:28:15;100775.56;;;21.70;24.17
46448;BME280;32145;50.390;30.778;2023-06-04T11:31:09;100778.06;;;21.67;24.22
46448;BME280;32145;50.390;30.778;2023-06-04T11:33:54;100772.94;;;21.55;23.77
46448;BME280;32145;50.390;30.778;2023-06-04T11:36:38;100769.56;;;21.63;24.08
46448;BME280;32145;50.390;30.778;2023-06-04T11:39:35;100775.28;;;21.77;24.24
46448;BME280;32145;50.390;30.778;2023-06-04T11:42:19;100775.09;;;21.58;23.49
46448;BME280;32145;50.390;30.778;2023-06-04T11:45:06;100775.69;;;21.55;24.24
46448;BME280;32145;50.390;30.778;2023-06-04T11:47:57;100768.44;;;21.64;24.13
46448;BME280;32145;50.390;30.778;2023-06-04T11:50:42;100770.69;;;21.57;23.69
46448;BME280;32145;50.390;30.778;2023-06-04T11:53:28;100774.75;;;21.70;23.94
46448;BME280;32145;50.390;30.778;2023-06-04T11:56:23;100771.34;;;21.83;23.71
46448;BME280;32145;50.390;30.778;2023-06-04T11:59:08;100758.44;;;21.79;23.70
46448;BME280;32145;50.390;30.778;2023-06-04T12:02:06;100762.41;;;21.57;24.50
46448;BME280;32145;50.390;30.778;2023-06-04T12:04:51;100764.81;;;21.29;24.48
46448;BME280;32145;50.390;30.778;2023-06-04T12:07:36;100766.88;;;21.02;24.50
46448;BME280;32145;50.390;30.778;2023-06-04T12:10:20;100769.97;;;20.74;24.73
46448;BME280;32145;50.390;30.778;2023-06-04T12:13:15;100760.66;;;20.55;25.41
46448;BME280;32145;50.390;30.778;2023-06-04T12:16:13;100762.03;;;20.52;25.06
46448;BME280;32145;50.390;30.778;2023-06-04T12:19:08;100759.53;;;20.71;24.26
46448;BME280;32145;50.390;30.778;2023-06-04T12:22:06;100752.03;;;20.82;24.18
46448;BME280;32145;50.390;30.778;2023-06-04T12:25:04;100755.78;;;21.12;24.07
46448;BME280;32145;50.390;30.778;2023-06-04T12:28:00;100753.72;;;21.34;24.47
46448;BME280;32145;50.390;30.778;2023-06-04T12:30:44;100755.31;;;21.45;24.19
46448;BME280;32145;50.390;30.778;2023-06-04T12:33:28;100748.34;;;21.58;24.56
46448;BME280;32145;50.390;30.778;2023-06-04T12:36:12;100752.09;;;21.78;24.52
46448;BME280;32145;50.390;30.778;2023-06-04T12:38:59;100747.50;;;21.98;24.29
46448;BME280;32145;50.390;30.778;2023-06-04T12:41:46;100746.44;;;22.23;24.17
46448;BME280;32145;50.390;30.778;2023-06-04T12:44:40;100739.06;;;22.43;24.14
46448;BME280;32145;50.390;30.778;2023-06-04T12:47:25;100735.25;;;22.39;23.33
46448;BME280;32145;50.390;30.778;2023-06-04T12:50:21;100740.19;;;22.42;23.46
46448;BME280;32145;50.390;30.778;2023-06-04T12:53:05;100720.69;;;22.28;23.17
46448;BME280;32145;50.390;30.778;2023-06-04T12:55:49;100729.75;;;22.34;24.04
46448;BME280;32145;50.390;30.778;2023-06-04T12:58:40;100739.22;;;22.52;23.61
46448;BME280;32145;50.390;30.778;2023-06-04T13:01:35;100731.22;;;22.56;23.79
46448;BME280;32145;50.390;30.778;2023-06-04T13:04:19;100737.94;;;22.44;23.65
46448;BME280;32145;50.390;30.778;2023-06-04T13:07:13;100733.41;;;22.59;23.80
46448;BME280;32145;50.390;30.778;2023-06-04T13:10:08;100726.31;;;22.72;23.71
46448;BME280;32145;50.390;30.778;2023-06-04T13:13:04;100724.50;;;22.62;23.66
46448;BME280;32145;50.390;30.778;2023-06-04T13:15:56;100727.06;;;22.53;23.61
46448;BME280;32145;50.390;30.778;2023-06-04T13:18:50;100723.69;;;22.61;23.68
46448;BME280;32145;50.390;30.778;2023-06-04T13:21:34;100728.75;;;22.78;23.76
46448;BME280;32145;50.390;30.778;2023-06-04T13:24:19;100719.31;;;22.79;23.12
46448;BME280;32145;50.390;30.778;2023-06-04T13:27:04;100713.72;;;22.85;23.28
46448;BME280;32145;50.390;30.778;2023-06-04T13:29:48;100725.22;;;22.73;22.62
46448;BME280;32145;50.390;30.778;2023-06-04T13:32:45;100715.34;;;22.42;23.28
46448;BME280;32145;50.390;30.778;2023-06-04T13:35:42;100719.66;;;22.48;23.71
46448;BME280;32145;50.390;30.778;2023-06-04T13:38:38;100712.31;;;22.38;24.77
46448;BME280;32145;50.390;30.778;2023-06-04T13:41:22;100716.59;;;22.25;24.32
46448;BME280;32145;50.390;30.778;2023-06-04T13:44:05;100712.19;;;22.24;24.16
46448;BME280;32145;50.390;30.778;2023-06-04T13:46:49;100709.84;;;22.37;24.09
46448;BME280;32145;50.390;30.778;2023-06-04T13:49:45;100705.34;;;22.46;23.95
46448;BME280;32145;50.390;30.778;2023-06-04T13:52:39;100696.81;;;22.43;25.16
46448;BME280;32145;50.390;30.778;2023-06-04T13:55:23;100696.38;;;22.30;24.67
46448;BME280;32145;50.390;30.778;2023-06-04T13:58:07;100692.50;;;22.31;25.86
46448;BME280;32145;50.390;30.778;2023-06-04T14:01:01;100690.69;;;22.46;24.90
46448;BME280;32145;50.390;30.778;2023-06-04T14:03:56;100689.97;;;22.64;23.99
46448;BME280;32145;50.390;30.778;2023-06-04T14:06:52;100687.81;;;22.81;23.86
46448;BME280;32145;50.390;30.778;2023-06-04T14:09:36;100685.41;;;22.93;23.65
46448;BME280;32145;50.390;30.778;2023-06-04T14:12:21;100682.50;;;22.84;22.84
46448;BME280;32145;50.390;30.778;2023-06-04T14:15:09;100681.38;;;22.66;23.44
46448;BME280;32145;50.390;30.778;2023-06-04T14:17:53;100679.88;;;22.49;23.05
46448;BME280;32145;50.390;30.778;2023-06-04T14:20:37;100681.88;;;22.44;23.21
46448;BME280;32145;50.390;30.778;2023-06-04T14:23:22;100692.97;;;22.38;23.20
46448;BME280;32145;50.390;30.778;2023-06-04T14:26:06;100690.66;;;22.26;23.06
46448;BME280;32145;50.390;30.778;2023-06-04T14:29:02;100678.88;;;22.40;23.39
46448;BME280;32145;50.390;30.778;2023-06-04T14:31:46;100684.81;;;22.52;22.92
46448;BME280;32145;50.390;30.778;2023-06-04T14:34:30;100683.69;;;22.53;22.90
46448;BME280;32145;50.390;30.778;2023-06-04T14:37:21;100684.88;;;22.47;22.93
46448;BME280;32145;50.390;30.778;2023-06-04T14:40:07;100681.81;;;22.49;22.79
46448;BME280;32145;50.390;30.778;2023-06-04T14:42:58;100687.56;;;22.52;22.36
46448;BME280;32145;50.390;30.778;2023-06-04T14:45:52;100678.78;;;22.50;22.66
46448;BME280;32145;50.390;30.778;2023-06-04T14:48:46;100679.50;;;22.61;22.54
46448;BME280;32145;50.390;30.778;2023-06-04T14:51:30;100683.22;;;22.71;22.67
46448;BME280;32145;50.390;30.778;2023-06-04T14:54:14;100678.63;;;22.85;22.60
46448;BME280;32145;50.390;30.778;2023-06-04T14:57:10;100677.00;;;22.84;22.51